createdAt,value
2018-05-18T00:01:01.315Z,99087.45
2018-05-18T00:03:28.787Z,99085.38
2018-05-18T00:05:56.183Z,99086.94
2018-05-18T00:08:23.586Z,99082.16
2018-05-18T00:10:51.564Z,99082.35
2018-05-18T00:13:18.956Z,99084.23
2018-05-18T00:15:46.359Z,99085.95
2018-05-18T00:18:13.761Z,99078.95
2018-05-18T00:20:41.176Z,99079.40
2018-05-18T00:23:08.605Z,99076.06
2018-05-18T00:25:35.988Z,99079.20
2018-05-18T00:28:03.454Z,99083.44
2018-05-18T00:30:30.848Z,99076.80
2018-05-18T00:32:58.232Z,99078.13
2018-05-18T00:35:26.465Z,99084.19
2018-05-18T00:37:53.845Z,99076.22
2018-05-18T00:40:21.244Z,99074.19
2018-05-18T00:42:48.643Z,99080.30
2018-05-18T00:45:16.040Z,99075.67
2018-05-18T00:47:43.436Z,99069.92
2018-05-18T00:50:10.844Z,99073.16
2018-05-18T00:52:38.234Z,99075.67
2018-05-18T00:55:17.460Z,99075.91
2018-05-18T00:57:44.907Z,99072.24
2018-05-18T01:00:12.304Z,99078.53
2018-05-18T01:02:39.701Z,99082.39
2018-05-18T01:05:07.099Z,99081.13
2018-05-18T01:10:08.309Z,99071.13
2018-05-18T01:12:35.704Z,99071.51
2018-05-18T01:15:03.134Z,99068.50
2018-05-18T01:17:30.521Z,99075.25
2018-05-18T01:19:57.923Z,99068.42
2018-05-18T01:22:25.321Z,99069.16
2018-05-18T01:24:52.800Z,99060.28
2018-05-18T01:27:20.183Z,99066.49
2018-05-18T01:29:47.584Z,99066.14
2018-05-18T01:32:14.972Z,99068.38
2018-05-18T01:34:42.414Z,99063.20
2018-05-18T01:37:09.803Z,99065.45
2018-05-18T01:39:37.712Z,99069.46
2018-05-18T01:42:05.110Z,99068.60
2018-05-18T01:44:32.728Z,99070.49
2018-05-18T01:47:00.119Z,99077.01
2018-05-18T01:49:27.510Z,99076.43
2018-05-18T01:51:54.972Z,99073.96
2018-05-18T01:54:22.361Z,99071.61
2018-05-18T01:56:49.748Z,99071.87
2018-05-18T01:59:17.848Z,99077.27
2018-05-18T02:01:45.302Z,99076.38
2018-05-18T02:04:12.691Z,99076.48
2018-05-18T02:06:40.093Z,99081.98
2018-05-18T02:09:07.475Z,99084.72
2018-05-18T02:11:34.887Z,99080.69
2018-05-18T02:14:02.271Z,99075.34
2018-05-18T02:16:29.673Z,99080.55
2018-05-18T02:18:57.354Z,99077.81
2018-05-18T02:21:24.756Z,99081.21
2018-05-18T02:23:52.147Z,99075.38
2018-05-18T02:26:19.562Z,99084.30
2018-05-18T02:28:46.966Z,99079.22
2018-05-18T02:31:14.361Z,99076.88
2018-05-18T02:33:41.758Z,99076.97
2018-05-18T02:36:09.247Z,99080.69
2018-05-18T02:38:36.632Z,99075.66
2018-05-18T02:41:04.037Z,99070.30
2018-05-18T02:43:31.432Z,99074.77
2018-05-18T02:45:58.921Z,99073.30
2018-05-18T02:48:26.309Z,99077.96
2018-05-18T02:50:53.705Z,99077.65
2018-05-18T02:53:21.107Z,99076.45
2018-05-18T02:55:48.495Z,99076.75
2018-05-18T02:58:15.903Z,99078.32
2018-05-18T03:00:43.297Z,99074.19
2018-05-18T03:03:10.741Z,99073.46
2018-05-18T03:05:38.159Z,99081.11
2018-05-18T03:08:05.561Z,99082.45
2018-05-18T03:10:32.949Z,99083.30
2018-05-18T03:13:01.494Z,99081.27
2018-05-18T03:15:28.883Z,99076.95
2018-05-18T03:17:56.271Z,99078.78
2018-05-18T03:20:23.686Z,99085.90
2018-05-18T03:22:51.351Z,99078.52
2018-05-18T03:25:18.741Z,99080.11
2018-05-18T03:27:46.147Z,99089.09
2018-05-18T03:30:13.641Z,99084.14
2018-05-18T03:32:41.040Z,99089.09
2018-05-18T03:35:08.428Z,99087.77
2018-05-18T03:37:35.823Z,99083.89
2018-05-18T03:40:04.018Z,99086.73
2018-05-18T03:42:32.416Z,99088.10
2018-05-18T03:45:00.488Z,99086.73
2018-05-18T03:47:27.887Z,99090.95
2018-05-18T03:49:55.272Z,99089.32
2018-05-18T03:52:22.677Z,99086.70
2018-05-18T03:54:50.207Z,99085.83
2018-05-18T03:57:17.623Z,99100.65
2018-05-18T03:59:45.014Z,99098.17
2018-05-18T04:02:24.219Z,99103.80
2018-05-18T04:08:04.746Z,99103.03
2018-05-18T04:10:32.141Z,99101.43
2018-05-18T04:12:59.770Z,99102.36
2018-05-18T04:15:27.155Z,99102.66
2018-05-18T04:17:54.569Z,99103.53
2018-05-18T04:20:22.030Z,99106.23
2018-05-18T04:22:49.490Z,99103.71
2018-05-18T04:25:16.904Z,99103.47
2018-05-18T04:27:44.309Z,99109.78
2018-05-18T04:30:11.808Z,99120.31
2018-05-18T04:35:18.752Z,99120.76
2018-05-18T04:37:47.092Z,99119.11
2018-05-18T04:40:14.509Z,99119.23
2018-05-18T04:42:41.969Z,99120.53
2018-05-18T04:45:09.375Z,99123.55
2018-05-18T04:47:36.817Z,99127.83
2018-05-18T04:50:04.765Z,99119.00
2018-05-18T04:52:32.173Z,99118.08
2018-05-18T04:54:59.568Z,99114.76
2018-05-18T04:57:27.213Z,99122.45
2018-05-18T04:59:54.689Z,99118.25
2018-05-18T05:02:22.155Z,99121.88
2018-05-18T05:04:49.642Z,99116.89
2018-05-18T05:07:17.106Z,99124.95
2018-05-18T05:09:44.583Z,99122.23
2018-05-18T05:12:12.760Z,99116.00
2018-05-18T05:14:40.351Z,99114.46
2018-05-18T05:17:08.213Z,99115.88
2018-05-18T05:19:35.889Z,99117.75
2018-05-18T05:22:03.370Z,99112.02
2018-05-18T05:24:30.767Z,99107.59
2018-05-18T05:26:58.176Z,99103.95
2018-05-18T05:29:25.606Z,99106.41
2018-05-18T05:31:53.007Z,99098.92
2018-05-18T05:34:20.419Z,99107.98
2018-05-18T05:36:47.857Z,99099.53
2018-05-18T05:39:15.303Z,99105.11
2018-05-18T05:41:42.708Z,99104.38
2018-05-18T05:44:10.105Z,99102.55
2018-05-18T05:46:37.520Z,99106.51
2018-05-18T05:49:04.942Z,99104.15
2018-05-18T05:51:32.343Z,99111.80
2018-05-18T05:53:59.744Z,99110.80
2018-05-18T05:56:27.168Z,99111.83
2018-05-18T05:58:54.639Z,99111.52
2018-05-18T06:01:22.037Z,99114.23
2018-05-18T06:03:49.443Z,99110.53
2018-05-18T06:06:17.032Z,99113.75
2018-05-18T06:08:44.421Z,99109.09
2018-05-18T06:11:11.822Z,99109.36
2018-05-18T06:13:39.240Z,99109.33
2018-05-18T06:16:06.852Z,99107.09
2018-05-18T06:18:34.240Z,99098.69
2018-05-18T06:21:01.776Z,99099.53
2018-05-18T06:23:29.249Z,99103.92
2018-05-18T06:25:56.644Z,99098.11
2018-05-18T06:28:24.030Z,99102.70
2018-05-18T06:30:51.427Z,99113.41
2018-05-18T06:33:19.039Z,99116.22
2018-05-18T06:35:46.449Z,99117.81
2018-05-18T06:38:13.835Z,99127.11
2018-05-18T06:40:41.250Z,99128.67
2018-05-18T06:43:09.191Z,99137.48
2018-05-18T06:45:36.597Z,99138.83
2018-05-18T06:48:04.010Z,99144.66
2018-05-18T06:50:31.596Z,99140.30
2018-05-18T06:52:59.003Z,99145.00
2018-05-18T06:55:26.395Z,99139.94
2018-05-18T06:57:53.800Z,99143.95
2018-05-18T07:00:21.801Z,99139.57
2018-05-18T07:02:49.208Z,99139.87
2018-05-18T07:05:16.599Z,99137.14
2018-05-18T07:07:44.019Z,99140.30
2018-05-18T07:10:11.451Z,99134.17
2018-05-18T07:12:38.848Z,99141.45
2018-05-18T07:15:06.235Z,99142.03
2018-05-18T07:17:33.651Z,99143.12
2018-05-18T07:20:01.101Z,99139.36
2018-05-18T07:22:28.507Z,99132.53
2018-05-18T07:24:55.892Z,99140.32
2018-05-18T07:27:23.354Z,99133.62
2018-05-18T07:29:50.753Z,99132.03
2018-05-18T07:32:18.156Z,99127.92
2018-05-18T07:34:45.540Z,99135.05
2018-05-18T07:37:13.059Z,99133.15
2018-05-18T07:39:40.456Z,99131.30
2018-05-18T07:42:07.876Z,99130.90
2018-05-18T07:44:35.308Z,99136.44
2018-05-18T07:47:02.932Z,99141.34
2018-05-18T07:49:30.325Z,99136.48
2018-05-18T07:51:57.738Z,99134.31
2018-05-18T07:54:25.259Z,99133.38
2018-05-18T07:56:53.234Z,99128.83
2018-05-18T07:59:20.657Z,99140.98
2018-05-18T08:01:48.397Z,99142.38
2018-05-18T08:04:15.788Z,99134.85
2018-05-18T08:06:43.189Z,99141.66
2018-05-18T08:09:10.604Z,99142.08
2018-05-18T08:11:37.996Z,99141.58
2018-05-18T08:14:05.398Z,99139.67
2018-05-18T08:16:32.793Z,99145.37
2018-05-18T08:19:00.648Z,99133.82
2018-05-18T08:21:28.286Z,99131.13
2018-05-18T08:23:55.601Z,99137.81
2018-05-18T08:26:22.992Z,99139.08
2018-05-18T08:29:02.308Z,99138.35
2018-05-18T08:31:29.753Z,99136.70
2018-05-18T08:33:57.154Z,99134.63
2018-05-18T08:36:24.545Z,99136.88
2018-05-18T08:38:52.119Z,99134.62
2018-05-18T08:41:19.510Z,99133.82
2018-05-18T08:43:46.908Z,99133.14
2018-05-18T08:46:15.403Z,99133.45
2018-05-18T08:48:42.810Z,99132.92
2018-05-18T08:51:10.195Z,99140.11
2018-05-18T08:53:37.608Z,99135.48
2018-05-18T08:56:05.009Z,99134.56
2018-05-18T08:58:32.407Z,99132.59
2018-05-18T09:00:59.804Z,99133.00
2018-05-18T09:03:27.231Z,99124.84
2018-05-18T09:05:54.618Z,99120.83
2018-05-18T09:08:22.027Z,99121.22
2018-05-18T09:10:49.417Z,99120.59
2018-05-18T09:13:16.837Z,99122.89
2018-05-18T09:15:44.222Z,99121.31
2018-05-18T09:18:11.627Z,99126.45
2018-05-18T09:20:39.025Z,99121.39
2018-05-18T09:23:07.393Z,99113.02
2018-05-18T09:25:34.783Z,99110.29
2018-05-18T09:28:02.225Z,99118.12
2018-05-18T09:30:29.716Z,99127.41
2018-05-18T09:32:57.125Z,99127.47
2018-05-18T09:35:24.510Z,99125.99
2018-05-18T09:37:52.341Z,99123.02
2018-05-18T09:40:19.754Z,99126.66
2018-05-18T09:42:47.479Z,99127.89
2018-05-18T09:45:14.915Z,99119.70
2018-05-18T09:47:42.359Z,99118.63
2018-05-18T09:50:10.872Z,99125.49
2018-05-18T09:52:38.263Z,99121.34
2018-05-18T09:55:05.734Z,99118.84
2018-05-18T09:57:33.611Z,99127.27
2018-05-18T10:00:01.015Z,99124.19
2018-05-18T10:02:28.824Z,99120.42
2018-05-18T10:04:57.000Z,99131.06
2018-05-18T10:07:24.396Z,99121.80
2018-05-18T10:09:51.786Z,99122.98
2018-05-18T10:12:19.199Z,99130.07
2018-05-18T10:14:46.577Z,99118.48
2018-05-18T10:17:13.976Z,99124.70
2018-05-18T10:19:41.393Z,99120.36
2018-05-18T10:22:08.780Z,99121.40
2018-05-18T10:24:36.177Z,99116.08
2018-05-18T10:27:03.645Z,99113.35
2018-05-18T10:29:31.012Z,99115.53
2018-05-18T10:31:58.415Z,99110.22
2018-05-18T10:34:25.823Z,99113.47
2018-05-18T10:36:53.435Z,99104.87
2018-05-18T10:39:20.843Z,99110.17
2018-05-18T10:41:48.245Z,99103.60
2018-05-18T10:44:15.630Z,99098.45
2018-05-18T10:46:43.026Z,99101.05
2018-05-18T10:49:11.097Z,99101.23
2018-05-18T10:51:38.487Z,99103.82
2018-05-18T10:54:05.948Z,99102.31
2018-05-18T10:56:33.348Z,99105.62
2018-05-18T10:59:00.736Z,99094.30
2018-05-18T11:01:28.132Z,99092.21
2018-05-18T11:03:55.541Z,99098.12
2018-05-18T11:06:22.945Z,99094.20
2018-05-18T11:08:50.462Z,99095.66
2018-05-18T11:11:17.875Z,99093.27
2018-05-18T11:13:45.351Z,99091.16
2018-05-18T11:16:12.759Z,99083.97
2018-05-18T11:18:40.152Z,99082.67
2018-05-18T11:21:07.818Z,99077.02
2018-05-18T11:23:35.295Z,99076.41
2018-05-18T11:26:02.692Z,99069.84
2018-05-18T11:28:30.084Z,99077.06
2018-05-18T11:30:57.588Z,99071.72
2018-05-18T11:33:24.991Z,99073.02
2018-05-18T11:35:52.383Z,99073.77
2018-05-18T11:38:19.812Z,99073.42
2018-05-18T11:40:47.197Z,99060.09
2018-05-18T11:43:14.589Z,99065.56
2018-05-18T11:45:42.532Z,99066.06
2018-05-18T11:48:10.025Z,99066.41
2018-05-18T11:50:37.327Z,99068.83
2018-05-18T11:53:04.713Z,99064.92
2018-05-18T11:55:32.104Z,99058.55
2018-05-18T11:57:59.535Z,99053.89
2018-05-18T12:00:26.929Z,99053.33
2018-05-18T12:02:54.392Z,99053.09
2018-05-18T12:05:22.450Z,99061.16
2018-05-18T12:07:49.872Z,99048.51
2018-05-18T12:10:17.267Z,99039.61
2018-05-18T12:12:44.651Z,99035.63
2018-05-18T12:15:12.210Z,99039.05
2018-05-18T12:17:39.630Z,99037.95
2018-05-18T12:20:07.943Z,99029.70
2018-05-18T12:22:35.506Z,99026.92
2018-05-18T12:25:02.920Z,99029.28
2018-05-18T12:27:30.314Z,99023.85
2018-05-18T12:29:58.320Z,99032.66
2018-05-18T12:32:28.051Z,99032.63
2018-05-18T12:34:55.444Z,99028.48
2018-05-18T12:37:22.901Z,99021.59
2018-05-18T12:39:50.292Z,99021.03
2018-05-18T12:42:17.700Z,99017.42
2018-05-18T12:44:45.219Z,99016.61
2018-05-18T12:47:12.548Z,99014.29
2018-05-18T12:49:39.953Z,99007.98
2018-05-18T12:52:07.352Z,99007.95
2018-05-18T12:54:34.891Z,99000.51
2018-05-18T12:57:02.298Z,99004.80
2018-05-18T12:59:29.707Z,98997.22
2018-05-18T13:01:57.072Z,98998.44
2018-05-18T13:04:24.520Z,99001.92
2018-05-18T13:06:51.914Z,98995.14
2018-05-18T13:09:19.319Z,98999.14
2018-05-18T13:11:46.752Z,98996.58
2018-05-18T13:14:14.137Z,98993.30
2018-05-18T13:16:41.526Z,98993.13
2018-05-18T13:19:08.937Z,98992.06
2018-05-18T13:21:37.217Z,98996.19
2018-05-18T13:24:04.621Z,98989.14
2018-05-18T13:26:32.003Z,98986.58
2018-05-18T13:28:59.484Z,98982.52
2018-05-18T13:31:26.852Z,98989.63
2018-05-18T13:33:54.472Z,98991.86
2018-05-18T13:36:22.591Z,98981.39
2018-05-18T13:38:50.077Z,98981.33
2018-05-18T13:41:17.896Z,98983.09
2018-05-18T13:43:45.316Z,98985.02
2018-05-18T13:46:12.921Z,98983.80
2018-05-18T13:48:41.776Z,98982.34
2018-05-18T13:51:09.180Z,98984.98
2018-05-18T13:53:37.132Z,98980.37
2018-05-18T13:56:04.972Z,98980.83
2018-05-18T13:58:32.392Z,98984.42
2018-05-18T14:00:59.769Z,98979.09
2018-05-18T14:03:27.164Z,98971.45
2018-05-18T14:05:54.559Z,98977.30
2018-05-18T14:08:22.001Z,98968.73
2018-05-18T14:10:50.076Z,98965.84
2018-05-18T14:13:17.472Z,98971.00
2018-05-18T14:15:44.888Z,98956.72
2018-05-18T14:18:12.640Z,98954.94
2018-05-18T14:20:40.045Z,98954.92
2018-05-18T14:23:08.241Z,98963.06
2018-05-18T14:25:36.107Z,98957.86
2018-05-18T14:28:03.501Z,98954.58
2018-05-18T14:30:31.415Z,98961.17
2018-05-18T14:32:58.972Z,98961.22
2018-05-18T14:35:26.376Z,98956.11
2018-05-18T14:37:53.821Z,98957.70
2018-05-18T14:40:21.178Z,98954.92
2018-05-18T14:42:48.657Z,98956.07
2018-05-18T14:45:16.057Z,98957.42
2018-05-18T14:47:43.451Z,98948.15
2018-05-18T14:50:10.880Z,98954.81
2018-05-18T14:52:39.259Z,98961.91
2018-05-18T14:55:06.652Z,98959.61
2018-05-18T14:57:34.096Z,98947.86
2018-05-18T15:00:01.495Z,98961.00
2018-05-18T15:02:28.892Z,98957.53
2018-05-18T15:04:56.290Z,98955.53
2018-05-18T15:07:23.909Z,98955.05
2018-05-18T15:09:51.307Z,98961.24
2018-05-18T15:12:19.730Z,98951.19
2018-05-18T15:14:47.142Z,98952.23
2018-05-18T15:17:14.520Z,98964.37
2018-05-18T15:19:41.934Z,98957.13
2018-05-18T15:22:09.362Z,98965.06
2018-05-18T15:24:36.787Z,98960.33
2018-05-18T15:27:04.208Z,98962.41
2018-05-18T15:29:31.592Z,98959.09
2018-05-18T15:31:59.000Z,98960.26
2018-05-18T15:34:27.270Z,98955.22
2018-05-18T15:36:54.663Z,98953.17
2018-05-18T15:39:22.056Z,98944.41
2018-05-18T15:41:49.452Z,98947.88
2018-05-18T15:44:16.863Z,98940.80
2018-05-18T15:46:45.165Z,98940.72
2018-05-18T15:49:12.551Z,98944.18
2018-05-18T15:51:39.946Z,98949.83
2018-05-18T15:54:07.334Z,98942.78
2018-05-18T15:56:34.743Z,98944.73
2018-05-18T15:59:02.717Z,98944.47
2018-05-18T16:01:30.116Z,98949.64
2018-05-18T16:03:58.110Z,98945.36
2018-05-18T16:06:25.604Z,98946.40
2018-05-18T16:08:53.007Z,98940.22
2018-05-18T16:11:20.400Z,98940.91
2018-05-18T16:13:47.804Z,98933.28
2018-05-18T16:16:15.244Z,98940.20
2018-05-18T16:18:42.632Z,98944.06
2018-05-18T16:21:10.028Z,98948.20
2018-05-18T16:23:37.424Z,98946.03
2018-05-18T16:26:05.343Z,98942.05
2018-05-18T16:28:32.737Z,98934.75
2018-05-18T16:31:00.155Z,98940.87
2018-05-18T16:33:27.582Z,98939.80
2018-05-18T16:35:54.966Z,98941.22
2018-05-18T16:38:22.379Z,98938.94
2018-05-18T16:40:49.763Z,98935.36
2018-05-18T16:43:17.169Z,98943.42
2018-05-18T16:45:44.567Z,98938.91
2018-05-18T16:48:11.970Z,98939.30
2018-05-18T16:50:39.379Z,98942.27
2018-05-18T16:53:06.860Z,98943.35
2018-05-18T16:55:34.245Z,98936.66
2018-05-18T16:58:01.735Z,98942.47
2018-05-18T17:00:29.041Z,98945.25
2018-05-18T17:02:56.443Z,98952.88
2018-05-18T17:05:24.157Z,98948.56
2018-05-18T17:07:51.565Z,98955.83
2018-05-18T17:10:19.120Z,98954.13
2018-05-18T17:12:46.520Z,98953.20
2018-05-18T17:15:13.928Z,98955.27
2018-05-18T17:17:41.331Z,98951.36
2018-05-18T17:20:09.133Z,98962.49
2018-05-18T17:22:36.542Z,98966.30
2018-05-18T17:25:03.944Z,98960.90
2018-05-18T17:27:32.000Z,98964.32
2018-05-18T17:29:59.511Z,98963.59
2018-05-18T17:32:26.928Z,98962.92
2018-05-18T17:34:54.323Z,98967.52
2018-05-18T17:37:21.721Z,98967.73
2018-05-18T17:39:49.459Z,98964.05
2018-05-18T17:42:16.881Z,98964.37
2018-05-18T17:44:44.528Z,98960.92
2018-05-18T17:47:12.371Z,98963.05
2018-05-18T17:49:39.782Z,98961.83
2018-05-18T17:52:07.183Z,98963.39
2018-05-18T17:54:34.698Z,98964.13
2018-05-18T17:57:02.088Z,98965.40
2018-05-18T17:59:29.499Z,98966.95
2018-05-18T18:01:57.538Z,98970.46
2018-05-18T18:04:25.040Z,98968.79
2018-05-18T18:06:52.800Z,98972.05
2018-05-18T18:09:20.199Z,98967.14
2018-05-18T18:11:47.720Z,98975.16
2018-05-18T18:14:15.128Z,98977.36
2018-05-18T18:16:42.524Z,98978.70
2018-05-18T18:19:10.537Z,98977.88
2018-05-18T18:21:38.623Z,98976.01
2018-05-18T18:24:06.028Z,98973.56
2018-05-18T18:26:35.285Z,98982.77
2018-05-18T18:29:02.696Z,98980.92
2018-05-18T18:31:31.008Z,98987.94
2018-05-18T18:34:00.066Z,98990.11
2018-05-18T18:36:28.244Z,98994.78
2018-05-18T18:38:56.170Z,98995.27
2018-05-18T18:41:23.620Z,98989.20
2018-05-18T18:43:51.025Z,98990.08
2018-05-18T18:46:18.419Z,98996.35
2018-05-18T18:48:46.576Z,98998.12
2018-05-18T18:51:14.774Z,98997.16
2018-05-18T18:53:42.274Z,99009.50
2018-05-18T18:56:09.772Z,99012.99
2018-05-18T18:58:37.185Z,99013.71
2018-05-18T19:01:04.943Z,99016.50
2018-05-18T19:03:32.916Z,99024.03
2018-05-18T19:06:01.428Z,99022.07
2018-05-18T19:08:28.889Z,99027.53
2018-05-18T19:10:57.303Z,99018.27
2018-05-18T19:13:24.704Z,99022.67
2018-05-18T19:15:52.169Z,99027.61
2018-05-18T19:18:19.581Z,99019.27
2018-05-18T19:20:47.052Z,99025.48
2018-05-18T19:23:14.527Z,99028.75
2018-05-18T19:25:41.939Z,99032.55
2018-05-18T19:28:09.353Z,99038.84
2018-05-18T19:30:37.901Z,99042.84
2018-05-18T19:33:05.587Z,99042.55
2018-05-18T19:35:33.863Z,99033.94
2018-05-18T19:38:01.241Z,99032.98
2018-05-18T19:40:28.676Z,99042.36
2018-05-18T19:42:56.113Z,99038.53
2018-05-18T19:45:23.532Z,99030.66
2018-05-18T19:47:51.648Z,99035.91
2018-05-18T19:50:19.038Z,99034.38
2018-05-18T19:52:46.421Z,99034.59
2018-05-18T19:55:13.839Z,99030.72
2018-05-18T19:57:41.232Z,99034.63
2018-05-18T20:00:09.615Z,99044.52
2018-05-18T20:02:37.005Z,99048.55
2018-05-18T20:05:04.435Z,99053.17
2018-05-18T20:07:31.824Z,99056.36
2018-05-18T20:09:59.220Z,99063.09
2018-05-18T20:12:26.620Z,99067.89
2018-05-18T20:14:54.299Z,99066.16
2018-05-18T20:17:21.675Z,99065.23
2018-05-18T20:19:49.131Z,99063.70
2018-05-18T20:22:16.464Z,99066.22
2018-05-18T20:24:44.028Z,99071.74
2018-05-18T20:27:11.424Z,99075.52
2018-05-18T20:29:38.813Z,99071.16
2018-05-18T20:32:06.221Z,99071.59
2018-05-18T20:34:33.620Z,99072.41
2018-05-18T20:37:01.027Z,99080.02
2018-05-18T20:39:28.425Z,99079.75
2018-05-18T20:41:55.816Z,99085.57
2018-05-18T20:44:23.374Z,99089.08
2018-05-18T20:46:50.770Z,99080.42
2018-05-18T20:49:18.436Z,99089.72
2018-05-18T20:51:47.357Z,99094.47
2018-05-18T20:54:14.698Z,99094.80
2018-05-18T20:56:42.096Z,99090.98
2018-05-18T20:59:09.732Z,99095.67
2018-05-18T21:01:37.111Z,99095.63
2018-05-18T21:04:04.738Z,99097.39
2018-05-18T21:06:32.136Z,99099.06
2018-05-18T21:08:59.599Z,99105.81
2018-05-18T21:11:27.004Z,99102.51
2018-05-18T21:13:55.237Z,99111.30
2018-05-18T21:16:23.272Z,99106.25
2018-05-18T21:18:50.665Z,99105.30
2018-05-18T21:21:18.078Z,99103.04
2018-05-18T21:23:45.463Z,99111.09
2018-05-18T21:26:13.132Z,99112.31
2018-05-18T21:28:40.532Z,99122.02
2018-05-18T21:31:07.924Z,99125.27
2018-05-18T21:33:35.859Z,99129.55
2018-05-18T21:36:03.263Z,99126.28
2018-05-18T21:38:30.663Z,99133.00
2018-05-18T21:40:58.260Z,99119.08
2018-05-18T21:43:25.703Z,99120.66
2018-05-18T21:45:53.090Z,99120.16
2018-05-18T21:48:20.500Z,99121.08
2018-05-18T21:50:47.884Z,99126.81
2018-05-18T21:53:15.291Z,99122.81
2018-05-18T21:55:43.733Z,99123.73
2018-05-18T21:58:11.180Z,99118.69
2018-05-18T22:02:41.684Z,99121.34
2018-05-18T22:05:09.271Z,99124.11
2018-05-18T22:07:36.667Z,99136.66
2018-05-18T22:10:04.127Z,99129.05
2018-05-18T22:12:31.537Z,99125.88
2018-05-18T22:14:59.219Z,99131.87
2018-05-18T22:17:26.606Z,99128.38
2018-05-18T22:19:54.802Z,99134.11
2018-05-18T22:22:22.220Z,99133.74
2018-05-18T22:24:49.616Z,99135.88
2018-05-18T22:27:17.029Z,99126.38
2018-05-18T22:29:45.461Z,99130.58
2018-05-18T22:32:12.873Z,99128.84
2018-05-18T22:34:40.265Z,99127.48
2018-05-18T22:37:07.701Z,99122.22
2018-05-18T22:39:35.371Z,99128.59
2018-05-18T22:42:03.361Z,99123.73
2018-05-18T22:44:30.763Z,99124.92
2018-05-18T22:46:58.177Z,99121.18
2018-05-18T22:49:25.575Z,99124.27
2018-05-18T22:51:52.959Z,99123.72
2018-05-18T22:54:20.780Z,99122.00
2018-05-18T22:56:48.384Z,99117.45
2018-05-18T22:59:15.792Z,99124.93
2018-05-18T23:01:43.189Z,99120.94
2018-05-18T23:04:11.450Z,99122.48
2018-05-18T23:06:38.824Z,99119.68
2018-05-18T23:09:06.232Z,99122.36
2018-05-18T23:11:33.760Z,99122.44
2018-05-18T23:14:01.162Z,99123.20
2018-05-18T23:16:28.547Z,99125.53
2018-05-18T23:18:55.953Z,99123.15
2018-05-18T23:21:23.352Z,99117.75
2018-05-18T23:23:50.760Z,99123.14
2018-05-18T23:26:18.156Z,99122.89
2018-05-18T23:28:45.711Z,99124.67
2018-05-18T23:31:13.196Z,99122.89
2018-05-18T23:33:41.226Z,99122.89
2018-05-18T23:36:08.612Z,99126.38
2018-05-18T23:38:36.333Z,99116.74
2018-05-18T23:41:03.737Z,99121.59
2018-05-18T23:43:31.155Z,99117.39
2018-05-18T23:45:58.650Z,99114.54
2018-05-18T23:48:26.054Z,99112.13
2018-05-18T23:50:53.536Z,99118.28
2018-05-18T23:53:20.926Z,99106.39
2018-05-18T23:55:48.988Z,99111.05
2018-05-18T23:58:16.396Z,99109.19
